sensor_id;sensor_type;location;lat;lon;timestamp;temperature;humidity
70460;DHT22;57920;54.796;9.430;2022-10-16T00:01:05;19.00;59.00
70460;DHT22;57920;54.796;9.430;2022-10-16T00:03:30;19.00;59.00
70460;DHT22;57920;54.796;9.430;2022-10-16T00:06:00;19.00;59.00
70460;DHT22;57920;54.796;9.430;2022-10-16T00:08:26;19.00;59.00
70460;DHT22;57920;54.796;9.430;2022-10-16T00:10:51;19.00;59.00
70460;DHT22;57920;54.796;9.430;2022-10-16T00:13:17;19.00;59.00
70460;DHT22;57920;54.796;9.430;2022-10-16T00:15:45;19.00;59.00
70460;DHT22;57920;54.796;9.430;2022-10-16T00:18:12;19.00;59.00
70460;DHT22;57920;54.796;9.430;2022-10-16T00:20:37;19.00;59.00
70460;DHT22;57920;54.796;9.430;2022-10-16T00:23:04;19.00;59.00
70460;DHT22;57920;54.796;9.430;2022-10-16T00:25:30;19.00;59.00
70460;DHT22;57920;54.796;9.430;2022-10-16T00:27:59;19.00;59.00
70460;DHT22;57920;54.796;9.430;2022-10-16T00:30:25;19.00;59.00
70460;DHT22;57920;54.796;9.430;2022-10-16T00:32:53;19.00;59.00
70460;DHT22;57920;54.796;9.430;2022-10-16T00:35:37;19.00;59.00
70460;DHT22;57920;54.796;9.430;2022-10-16T00:38:03;19.00;59.00
70460;DHT22;57920;54.796;9.430;2022-10-16T00:40:28;19.00;59.00
70460;DHT22;57920;54.796;9.430;2022-10-16T00:42:54;19.00;59.00
70460;DHT22;57920;54.796;9.430;2022-10-16T00:45:20;19.00;59.00
70460;DHT22;57920;54.796;9.430;2022-10-16T00:47:47;19.00;59.00
70460;DHT22;57920;54.796;9.430;2022-10-16T00:50:28;19.00;59.00
70460;DHT22;57920;54.796;9.430;2022-10-16T00:52:56;19.00;59.00
70460;DHT22;57920;54.796;9.430;2022-10-16T00:55:26;19.00;59.00
70460;DHT22;57920;54.796;9.430;2022-10-16T00:57:54;19.00;58.90
70460;DHT22;57920;54.796;9.430;2022-10-16T01:00:23;19.00;58.90
70460;DHT22;57920;54.796;9.430;2022-10-16T01:05:24;19.00;59.00
70460;DHT22;57920;54.796;9.430;2022-10-16T01:08:10;19.00;59.00
70460;DHT22;57920;54.796;9.430;2022-10-16T01:10:38;19.00;59.00
70460;DHT22;57920;54.796;9.430;2022-10-16T01:13:12;19.00;59.00
70460;DHT22;57920;54.796;9.430;2022-10-16T01:15:59;19.00;59.00
70460;DHT22;57920;54.796;9.430;2022-10-16T01:18:43;19.00;58.90
70460;DHT22;57920;54.796;9.430;2022-10-16T01:21:19;19.00;58.90
70460;DHT22;57920;54.796;9.430;2022-10-16T01:24:18;19.00;59.00
70460;DHT22;57920;54.796;9.430;2022-10-16T01:29:49;18.90;59.00
70460;DHT22;57920;54.796;9.430;2022-10-16T01:35:18;19.00;58.90
70460;DHT22;57920;54.796;9.430;2022-10-16T01:40:18;19.00;58.90
70460;DHT22;57920;54.796;9.430;2022-10-16T01:42:50;19.00;58.90
70460;DHT22;57920;54.796;9.430;2022-10-16T01:45:18;18.90;58.90
70460;DHT22;57920;54.796;9.430;2022-10-16T01:47:45;18.90;58.90
70460;DHT22;57920;54.796;9.430;2022-10-16T01:50:12;18.90;58.90
70460;DHT22;57920;54.796;9.430;2022-10-16T01:52:43;18.90;58.90
70460;DHT22;57920;54.796;9.430;2022-10-16T01:55:12;18.90;58.90
70460;DHT22;57920;54.796;9.430;2022-10-16T01:57:43;18.90;58.90
70460;DHT22;57920;54.796;9.430;2022-10-16T02:00:12;19.00;58.90
70460;DHT22;57920;54.796;9.430;2022-10-16T12:56:19;19.20;58.30
70460;DHT22;57920;54.796;9.430;2022-10-16T12:59:04;19.20;58.30
70460;DHT22;57920;54.796;9.430;2022-10-16T13:02:11;19.20;58.30
70460;DHT22;57920;54.796;9.430;2022-10-16T13:10:40;19.20;58.30
70460;DHT22;57920;54.796;9.430;2022-10-16T13:22:06;19.20;58.30
70460;DHT22;57920;54.796;9.430;2022-10-16T13:25:09;19.20;58.30
70460;DHT22;57920;54.796;9.430;2022-10-16T13:30:40;19.20;58.30
70460;DHT22;57920;54.796;9.430;2022-10-16T13:33:17;19.10;58.20
70460;DHT22;57920;54.796;9.430;2022-10-16T13:35:52;19.10;58.20
70460;DHT22;57920;54.796;9.430;2022-10-16T13:38:21;19.20;58.20
70460;DHT22;57920;54.796;9.430;2022-10-16T13:41:02;19.20;58.20
70460;DHT22;57920;54.796;9.430;2022-10-16T13:43:40;19.20;58.30
70460;DHT22;57920;54.796;9.430;2022-10-16T13:46:12;19.10;58.20
70460;DHT22;57920;54.796;9.430;2022-10-16T13:48:41;19.10;58.20
70460;DHT22;57920;54.796;9.430;2022-10-16T13:51:13;19.10;58.30
70460;DHT22;57920;54.796;9.430;2022-10-16T13:53:39;19.10;58.20
70460;DHT22;57920;54.796;9.430;2022-10-16T13:56:10;19.10;58.20
70460;DHT22;57920;54.796;9.430;2022-10-16T13:58:36;19.10;58.30
70460;DHT22;57920;54.796;9.430;2022-10-16T14:01:24;19.10;58.20
70460;DHT22;57920;54.796;9.430;2022-10-16T14:03:49;19.10;58.20
70460;DHT22;57920;54.796;9.430;2022-10-16T14:06:18;19.20;58.20
70460;DHT22;57920;54.796;9.430;2022-10-16T14:08:50;19.20;58.20
70460;DHT22;57920;54.796;9.430;2022-10-16T14:11:22;19.20;58.20
70460;DHT22;57920;54.796;9.430;2022-10-16T14:13:50;19.10;58.10
70460;DHT22;57920;54.796;9.430;2022-10-16T14:16:21;19.20;58.10
70460;DHT22;57920;54.796;9.430;2022-10-16T14:19:02;19.20;58.20
70460;DHT22;57920;54.796;9.430;2022-10-16T14:21:29;19.20;58.10
70460;DHT22;57920;54.796;9.430;2022-10-16T14:23:55;19.20;58.00
70460;DHT22;57920;54.796;9.430;2022-10-16T14:26:26;19.20;58.00
70460;DHT22;57920;54.796;9.430;2022-10-16T14:29:14;19.20;58.00
70460;DHT22;57920;54.796;9.430;2022-10-16T14:31:41;19.20;58.00
70460;DHT22;57920;54.796;9.430;2022-10-16T14:34:27;19.20;57.90
70460;DHT22;57920;54.796;9.430;2022-10-16T14:36:54;19.20;57.90
70460;DHT22;57920;54.796;9.430;2022-10-16T14:39:21;19.20;57.90
70460;DHT22;57920;54.796;9.430;2022-10-16T14:41:49;19.20;57.90
70460;DHT22;57920;54.796;9.430;2022-10-16T14:44:17;19.20;57.90
70460;DHT22;57920;54.796;9.430;2022-10-16T14:46:44;19.20;57.80
70460;DHT22;57920;54.796;9.430;2022-10-16T14:51:39;19.20;57.80
70460;DHT22;57920;54.796;9.430;2022-10-16T14:54:13;19.20;57.70
70460;DHT22;57920;54.796;9.430;2022-10-16T14:56:49;19.20;57.80
70460;DHT22;57920;54.796;9.430;2022-10-16T14:59:35;19.20;57.70
70460;DHT22;57920;54.796;9.430;2022-10-16T15:02:27;19.20;57.70
70460;DHT22;57920;54.796;9.430;2022-10-16T15:04:53;19.30;57.70
70460;DHT22;57920;54.796;9.430;2022-10-16T15:07:19;19.20;57.70
70460;DHT22;57920;54.796;9.430;2022-10-16T15:09:45;19.20;57.70
70460;DHT22;57920;54.796;9.430;2022-10-16T15:12:10;19.20;57.70
70460;DHT22;57920;54.796;9.430;2022-10-16T15:14:36;19.20;57.70
70460;DHT22;57920;54.796;9.430;2022-10-16T15:17:02;19.20;57.70
70460;DHT22;57920;54.796;9.430;2022-10-16T15:19:29;19.20;57.70
70460;DHT22;57920;54.796;9.430;2022-10-16T15:21:55;19.20;57.70
70460;DHT22;57920;54.796;9.430;2022-10-16T15:24:20;19.20;57.70
70460;DHT22;57920;54.796;9.430;2022-10-16T15:26:46;19.20;57.70
70460;DHT22;57920;54.796;9.430;2022-10-16T15:29:12;19.20;57.70
70460;DHT22;57920;54.796;9.430;2022-10-16T15:31:38;19.20;57.80
70460;DHT22;57920;54.796;9.430;2022-10-16T15:34:04;19.20;57.80
70460;DHT22;57920;54.796;9.430;2022-10-16T15:36:36;19.20;57.80
70460;DHT22;57920;54.796;9.430;2022-10-16T15:39:10;19.20;57.80
70460;DHT22;57920;54.796;9.430;2022-10-16T15:41:37;19.20;57.80
70460;DHT22;57920;54.796;9.430;2022-10-16T15:44:03;19.20;57.80
70460;DHT22;57920;54.796;9.430;2022-10-16T15:46:28;19.20;57.80
70460;DHT22;57920;54.796;9.430;2022-10-16T15:48:57;19.20;57.80
70460;DHT22;57920;54.796;9.430;2022-10-16T15:51:24;19.20;57.80
70460;DHT22;57920;54.796;9.430;2022-10-16T15:53:50;19.20;57.80
70460;DHT22;57920;54.796;9.430;2022-10-16T15:56:16;19.20;57.80
70460;DHT22;57920;54.796;9.430;2022-10-16T15:58:43;19.20;57.80
70460;DHT22;57920;54.796;9.430;2022-10-16T16:01:09;19.20;57.80
70460;DHT22;57920;54.796;9.430;2022-10-16T16:03:36;19.20;57.80
70460;DHT22;57920;54.796;9.430;2022-10-16T16:06:07;19.20;57.80
70460;DHT22;57920;54.796;9.430;2022-10-16T16:08:33;19.20;57.80
70460;DHT22;57920;54.796;9.430;2022-10-16T16:11:11;19.20;57.80
70460;DHT22;57920;54.796;9.430;2022-10-16T16:13:38;19.10;57.70
70460;DHT22;57920;54.796;9.430;2022-10-16T16:16:15;19.10;57.80
70460;DHT22;57920;54.796;9.430;2022-10-16T16:18:42;19.10;57.80
70460;DHT22;57920;54.796;9.430;2022-10-16T16:21:10;19.10;57.80
70460;DHT22;57920;54.796;9.430;2022-10-16T16:23:36;19.10;57.80
70460;DHT22;57920;54.796;9.430;2022-10-16T16:26:13;19.10;57.80
70460;DHT22;57920;54.796;9.430;2022-10-16T16:28:40;19.10;57.80
70460;DHT22;57920;54.796;9.430;2022-10-16T16:31:05;19.10;57.80
70460;DHT22;57920;54.796;9.430;2022-10-16T16:33:32;19.10;57.80
70460;DHT22;57920;54.796;9.430;2022-10-16T16:36:03;19.10;57.70
70460;DHT22;57920;54.796;9.430;2022-10-16T16:38:29;19.10;57.70
70460;DHT22;57920;54.796;9.430;2022-10-16T16:40:55;19.10;57.80
70460;DHT22;57920;54.796;9.430;2022-10-16T16:43:25;19.10;57.70
70460;DHT22;57920;54.796;9.430;2022-10-16T16:45:51;19.10;57.70
70460;DHT22;57920;54.796;9.430;2022-10-16T16:48:17;19.10;57.80
70460;DHT22;57920;54.796;9.430;2022-10-16T16:50:43;19.10;57.70
70460;DHT22;57920;54.796;9.430;2022-10-16T16:53:08;19.10;57.70
70460;DHT22;57920;54.796;9.430;2022-10-16T16:55:34;19.10;57.70
70460;DHT22;57920;54.796;9.430;2022-10-16T16:57:59;19.00;57.70
70460;DHT22;57920;54.796;9.430;2022-10-16T17:00:25;19.00;57.70
70460;DHT22;57920;54.796;9.430;2022-10-16T17:02:51;19.10;57.70
70460;DHT22;57920;54.796;9.430;2022-10-16T17:05:18;19.10;57.70
70460;DHT22;57920;54.796;9.430;2022-10-16T17:07:44;19.10;57.70
70460;DHT22;57920;54.796;9.430;2022-10-16T17:10:10;19.10;57.70
70460;DHT22;57920;54.796;9.430;2022-10-16T17:12:36;19.10;57.70
70460;DHT22;57920;54.796;9.430;2022-10-16T17:15:01;19.10;57.70
70460;DHT22;57920;54.796;9.430;2022-10-16T17:17:27;19.00;57.70
70460;DHT22;57920;54.796;9.430;2022-10-16T17:19:52;19.10;57.60
70460;DHT22;57920;54.796;9.430;2022-10-16T17:22:18;19.00;57.70
70460;DHT22;57920;54.796;9.430;2022-10-16T17:24:47;19.10;57.60
70460;DHT22;57920;54.796;9.430;2022-10-16T17:27:14;19.00;57.60
70460;DHT22;57920;54.796;9.430;2022-10-16T17:29:40;19.00;57.60
70460;DHT22;57920;54.796;9.430;2022-10-16T17:32:06;19.00;57.60
70460;DHT22;57920;54.796;9.430;2022-10-16T17:34:32;19.00;57.60
70460;DHT22;57920;54.796;9.430;2022-10-16T17:36:57;19.00;57.60
70460;DHT22;57920;54.796;9.430;2022-10-16T17:39:23;19.00;57.60
70460;DHT22;57920;54.796;9.430;2022-10-16T17:41:48;19.00;57.60
70460;DHT22;57920;54.796;9.430;2022-10-16T17:44:14;19.00;57.60
70460;DHT22;57920;54.796;9.430;2022-10-16T17:46:52;19.00;57.60
70460;DHT22;57920;54.796;9.430;2022-10-16T17:49:19;19.00;57.60
70460;DHT22;57920;54.796;9.430;2022-10-16T17:51:45;19.00;57.60
70460;DHT22;57920;54.796;9.430;2022-10-16T17:54:13;19.00;57.60
70460;DHT22;57920;54.796;9.430;2022-10-16T17:56:39;19.00;57.60
70460;DHT22;57920;54.796;9.430;2022-10-16T17:59:05;19.00;57.60
70460;DHT22;57920;54.796;9.430;2022-10-16T18:01:36;19.00;57.60
70460;DHT22;57920;54.796;9.430;2022-10-16T18:04:10;19.00;57.60
70460;DHT22;57920;54.796;9.430;2022-10-16T18:06:37;19.00;57.60
70460;DHT22;57920;54.796;9.430;2022-10-16T18:09:04;19.00;57.60
70460;DHT22;57920;54.796;9.430;2022-10-16T18:11:30;18.90;57.60
70460;DHT22;57920;54.796;9.430;2022-10-16T18:13:57;19.00;57.60
70460;DHT22;57920;54.796;9.430;2022-10-16T18:16:24;19.00;57.60
70460;DHT22;57920;54.796;9.430;2022-10-16T18:18:50;18.90;57.60
70460;DHT22;57920;54.796;9.430;2022-10-16T18:21:17;19.00;57.50
70460;DHT22;57920;54.796;9.430;2022-10-16T18:23:43;18.90;57.50
70460;DHT22;57920;54.796;9.430;2022-10-16T18:26:10;19.00;57.50
70460;DHT22;57920;54.796;9.430;2022-10-16T18:28:36;19.00;57.50
70460;DHT22;57920;54.796;9.430;2022-10-16T18:31:14;19.00;57.50
70460;DHT22;57920;54.796;9.430;2022-10-16T18:33:41;19.00;57.50
70460;DHT22;57920;54.796;9.430;2022-10-16T18:36:12;19.00;57.40
70460;DHT22;57920;54.796;9.430;2022-10-16T18:38:39;19.00;57.40
70460;DHT22;57920;54.796;9.430;2022-10-16T18:41:05;19.00;57.40
70460;DHT22;57920;54.796;9.430;2022-10-16T18:43:32;18.90;57.40
70460;DHT22;57920;54.796;9.430;2022-10-16T18:46:00;19.00;57.40
70460;DHT22;57920;54.796;9.430;2022-10-16T18:48:26;18.90;57.30
70460;DHT22;57920;54.796;9.430;2022-10-16T18:50:52;19.00;57.40
70460;DHT22;57920;54.796;9.430;2022-10-16T18:53:18;19.00;57.30
70460;DHT22;57920;54.796;9.430;2022-10-16T18:55:51;18.90;57.40
70460;DHT22;57920;54.796;9.430;2022-10-16T18:58:17;18.90;57.30
70460;DHT22;57920;54.796;9.430;2022-10-16T19:00:43;18.90;57.40
70460;DHT22;57920;54.796;9.430;2022-10-16T19:03:08;18.90;57.30
70460;DHT22;57920;54.796;9.430;2022-10-16T19:05:34;18.90;57.30
70460;DHT22;57920;54.796;9.430;2022-10-16T19:07:59;18.90;57.30
70460;DHT22;57920;54.796;9.430;2022-10-16T19:10:25;18.90;57.30
70460;DHT22;57920;54.796;9.430;2022-10-16T19:12:50;18.90;57.30
70460;DHT22;57920;54.796;9.430;2022-10-16T19:15:16;18.90;57.30
70460;DHT22;57920;54.796;9.430;2022-10-16T19:17:41;18.90;57.20
70460;DHT22;57920;54.796;9.430;2022-10-16T19:20:35;18.90;57.30
70460;DHT22;57920;54.796;9.430;2022-10-16T19:23:01;18.90;57.20
70460;DHT22;57920;54.796;9.430;2022-10-16T19:25:28;18.90;57.20
70460;DHT22;57920;54.796;9.430;2022-10-16T19:27:54;18.90;57.20
70460;DHT22;57920;54.796;9.430;2022-10-16T19:30:19;18.90;57.20
70460;DHT22;57920;54.796;9.430;2022-10-16T19:32:45;18.90;57.20
70460;DHT22;57920;54.796;9.430;2022-10-16T19:35:14;18.90;57.20
70460;DHT22;57920;54.796;9.430;2022-10-16T19:37:39;18.90;57.20
70460;DHT22;57920;54.796;9.430;2022-10-16T19:40:05;18.90;57.20
70460;DHT22;57920;54.796;9.430;2022-10-16T19:42:31;18.90;57.20
70460;DHT22;57920;54.796;9.430;2022-10-16T19:44:57;18.90;57.20
70460;DHT22;57920;54.796;9.430;2022-10-16T19:47:22;18.90;57.10
70460;DHT22;57920;54.796;9.430;2022-10-16T19:49:49;18.90;57.10
70460;DHT22;57920;54.796;9.430;2022-10-16T19:52:14;18.90;57.10
70460;DHT22;57920;54.796;9.430;2022-10-16T19:54:41;18.90;57.10
70460;DHT22;57920;54.796;9.430;2022-10-16T19:57:07;18.90;57.00
70460;DHT22;57920;54.796;9.430;2022-10-16T19:59:33;18.90;57.00
70460;DHT22;57920;54.796;9.430;2022-10-16T20:01:59;18.90;57.10
70460;DHT22;57920;54.796;9.430;2022-10-16T20:04:25;18.90;57.00
70460;DHT22;57920;54.796;9.430;2022-10-16T20:06:51;18.90;57.00
70460;DHT22;57920;54.796;9.430;2022-10-16T20:09:16;18.90;57.00
70460;DHT22;57920;54.796;9.430;2022-10-16T20:11:42;18.90;57.00
70460;DHT22;57920;54.796;9.430;2022-10-16T20:14:07;18.90;57.00
70460;DHT22;57920;54.796;9.430;2022-10-16T20:16:33;18.90;57.00
70460;DHT22;57920;54.796;9.430;2022-10-16T20:18:59;18.90;57.00
70460;DHT22;57920;54.796;9.430;2022-10-16T20:21:31;18.90;57.00
70460;DHT22;57920;54.796;9.430;2022-10-16T20:24:02;18.90;56.90
70460;DHT22;57920;54.796;9.430;2022-10-16T20:26:29;18.90;56.90
70460;DHT22;57920;54.796;9.430;2022-10-16T20:28:55;18.90;56.90
70460;DHT22;57920;54.796;9.430;2022-10-16T20:31:23;18.90;57.00
70460;DHT22;57920;54.796;9.430;2022-10-16T20:33:51;18.90;57.00
70460;DHT22;57920;54.796;9.430;2022-10-16T20:36:19;18.90;57.00
70460;DHT22;57920;54.796;9.430;2022-10-16T20:38:45;18.90;56.90
70460;DHT22;57920;54.796;9.430;2022-10-16T20:41:11;18.80;57.00
70460;DHT22;57920;54.796;9.430;2022-10-16T20:43:42;18.80;56.90
70460;DHT22;57920;54.796;9.430;2022-10-16T20:46:11;18.90;56.90
70460;DHT22;57920;54.796;9.430;2022-10-16T20:48:41;18.90;56.90
70460;DHT22;57920;54.796;9.430;2022-10-16T20:51:12;18.90;56.90
70460;DHT22;57920;54.796;9.430;2022-10-16T20:53:37;18.90;56.90
70460;DHT22;57920;54.796;9.430;2022-10-16T20:56:03;18.80;56.90
70460;DHT22;57920;54.796;9.430;2022-10-16T20:58:29;18.90;56.90
70460;DHT22;57920;54.796;9.430;2022-10-16T21:00:55;18.80;56.90
70460;DHT22;57920;54.796;9.430;2022-10-16T21:03:20;18.90;56.90
70460;DHT22;57920;54.796;9.430;2022-10-16T21:08:21;18.90;56.80
70460;DHT22;57920;54.796;9.430;2022-10-16T21:10:47;18.90;56.80
70460;DHT22;57920;54.796;9.430;2022-10-16T21:13:12;18.90;56.90
70460;DHT22;57920;54.796;9.430;2022-10-16T21:15:38;18.90;56.80
70460;DHT22;57920;54.796;9.430;2022-10-16T21:18:03;18.90;56.80
70460;DHT22;57920;54.796;9.430;2022-10-16T21:20:29;18.90;56.80
70460;DHT22;57920;54.796;9.430;2022-10-16T21:22:54;18.90;56.70
70460;DHT22;57920;54.796;9.430;2022-10-16T21:25:20;18.90;56.70
70460;DHT22;57920;54.796;9.430;2022-10-16T21:27:45;18.90;56.70
70460;DHT22;57920;54.796;9.430;2022-10-16T21:30:11;18.90;56.70
70460;DHT22;57920;54.796;9.430;2022-10-16T21:32:37;18.90;56.70
70460;DHT22;57920;54.796;9.430;2022-10-16T21:35:05;18.90;56.70
70460;DHT22;57920;54.796;9.430;2022-10-16T21:37:31;18.90;56.70
70460;DHT22;57920;54.796;9.430;2022-10-16T21:39:56;18.90;56.70
70460;DHT22;57920;54.796;9.430;2022-10-16T21:42:22;18.90;56.60
70460;DHT22;57920;54.796;9.430;2022-10-16T21:44:47;18.90;56.70
70460;DHT22;57920;54.796;9.430;2022-10-16T21:47:13;18.90;56.70
70460;DHT22;57920;54.796;9.430;2022-10-16T21:49:39;18.90;56.60
70460;DHT22;57920;54.796;9.430;2022-10-16T21:52:04;18.90;56.60
70460;DHT22;57920;54.796;9.430;2022-10-16T21:54:30;18.90;56.60
70460;DHT22;57920;54.796;9.430;2022-10-16T21:56:55;18.90;56.70
70460;DHT22;57920;54.796;9.430;2022-10-16T21:59:21;18.90;56.60
70460;DHT22;57920;54.796;9.430;2022-10-16T22:01:47;18.80;56.60
70460;DHT22;57920;54.796;9.430;2022-10-16T22:04:15;18.90;56.60
70460;DHT22;57920;54.796;9.430;2022-10-16T22:06:41;18.90;56.60
70460;DHT22;57920;54.796;9.430;2022-10-16T22:09:07;18.80;56.60
70460;DHT22;57920;54.796;9.430;2022-10-16T22:11:36;18.90;56.60
70460;DHT22;57920;54.796;9.430;2022-10-16T22:14:14;18.80;56.60
70460;DHT22;57920;54.796;9.430;2022-10-16T22:16:42;18.80;56.60
70460;DHT22;57920;54.796;9.430;2022-10-16T22:19:09;18.80;56.60
70460;DHT22;57920;54.796;9.430;2022-10-16T22:21:36;18.80;56.60
70460;DHT22;57920;54.796;9.430;2022-10-16T22:24:02;18.80;56.60
70460;DHT22;57920;54.796;9.430;2022-10-16T22:26:28;18.80;56.60
70460;DHT22;57920;54.796;9.430;2022-10-16T22:28:54;18.80;56.50
70460;DHT22;57920;54.796;9.430;2022-10-16T22:31:20;18.80;56.60
70460;DHT22;57920;54.796;9.430;2022-10-16T22:33:55;18.80;56.50
70460;DHT22;57920;54.796;9.430;2022-10-16T22:36:21;18.90;56.50
70460;DHT22;57920;54.796;9.430;2022-10-16T22:38:47;18.80;56.50
70460;DHT22;57920;54.796;9.430;2022-10-16T22:41:13;18.80;56.50
70460;DHT22;57920;54.796;9.430;2022-10-16T22:43:44;18.80;56.50
70460;DHT22;57920;54.796;9.430;2022-10-16T22:46:12;18.80;56.50
70460;DHT22;57920;54.796;9.430;2022-10-16T22:48:39;18.90;56.50
70460;DHT22;57920;54.796;9.430;2022-10-16T22:51:05;18.90;56.50
70460;DHT22;57920;54.796;9.430;2022-10-16T22:53:31;18.90;56.50
70460;DHT22;57920;54.796;9.430;2022-10-16T22:55:57;18.90;56.40
70460;DHT22;57920;54.796;9.430;2022-10-16T22:58:23;18.90;56.40
70460;DHT22;57920;54.796;9.430;2022-10-16T23:00:49;18.90;56.50
70460;DHT22;57920;54.796;9.430;2022-10-16T23:03:15;18.90;56.40
70460;DHT22;57920;54.796;9.430;2022-10-16T23:05:41;18.80;56.40
70460;DHT22;57920;54.796;9.430;2022-10-16T23:08:08;18.90;56.40
70460;DHT22;57920;54.796;9.430;2022-10-16T23:10:37;18.90;56.40
70460;DHT22;57920;54.796;9.430;2022-10-16T23:13:03;18.90;56.40
70460;DHT22;57920;54.796;9.430;2022-10-16T23:15:29;18.80;56.40
70460;DHT22;57920;54.796;9.430;2022-10-16T23:17:54;18.80;56.30
70460;DHT22;57920;54.796;9.430;2022-10-16T23:20:20;18.80;56.30
70460;DHT22;57920;54.796;9.430;2022-10-16T23:22:46;18.80;56.30
70460;DHT22;57920;54.796;9.430;2022-10-16T23:25:11;18.90;56.30
70460;DHT22;57920;54.796;9.430;2022-10-16T23:27:37;18.80;56.30
70460;DHT22;57920;54.796;9.430;2022-10-16T23:30:03;18.80;56.30
70460;DHT22;57920;54.796;9.430;2022-10-16T23:32:31;18.80;56.30
70460;DHT22;57920;54.796;9.430;2022-10-16T23:34:56;18.80;56.30
70460;DHT22;57920;54.796;9.430;2022-10-16T23:37:22;18.80;56.30
70460;DHT22;57920;54.796;9.430;2022-10-16T23:39:49;18.80;56.30
70460;DHT22;57920;54.796;9.430;2022-10-16T23:42:14;18.80;56.20
70460;DHT22;57920;54.796;9.430;2022-10-16T23:44:40;18.80;56.20
70460;DHT22;57920;54.796;9.430;2022-10-16T23:47:05;18.80;56.20
70460;DHT22;57920;54.796;9.430;2022-10-16T23:49:31;18.80;56.20
70460;DHT22;57920;54.796;9.430;2022-10-16T23:51:57;18.80;56.20
70460;DHT22;57920;54.796;9.430;2022-10-16T23:54:22;18.80;56.20
70460;DHT22;57920;54.796;9.430;2022-10-16T23:56:48;18.80;56.20
70460;DHT22;57920;54.796;9.430;2022-10-16T23:59:13;18.80;56.20
